createdAt,value
2022-08-07T00:02:41.057Z,19.30
2022-08-07T00:05:06.033Z,19.30
2022-08-07T00:07:39.218Z,19.30
2022-08-07T00:10:26.826Z,19.30
2022-08-07T00:13:01.080Z,19.30
2022-08-07T00:15:37.698Z,19.20
2022-08-07T00:18:09.206Z,19.20
2022-08-07T00:20:49.783Z,19.20
2022-08-07T00:23:18.662Z,19.20
2022-08-07T00:25:59.043Z,19.20
2022-08-07T00:28:33.187Z,19.10
2022-08-07T00:31:12.236Z,19.10
2022-08-07T00:33:42.281Z,19.10
2022-08-07T00:36:10.980Z,19.20
2022-08-07T00:38:40.395Z,19.10
2022-08-07T00:41:14.776Z,19.10
2022-08-07T00:44:01.816Z,19.10
2022-08-07T00:46:34.131Z,19.10
2022-08-07T00:49:03.478Z,19.10
2022-08-07T00:51:58.304Z,19.00
2022-08-07T00:54:21.107Z,19.00
2022-08-07T00:56:51.324Z,19.00
2022-08-07T00:59:35.387Z,19.10
2022-08-07T01:02:09.071Z,19.10
2022-08-07T01:04:58.426Z,19.00
2022-08-07T01:07:29.211Z,19.00
2022-08-07T01:10:06.227Z,19.00
2022-08-07T01:12:39.409Z,18.90
2022-08-07T01:15:22.802Z,18.90
2022-08-07T01:18:06.456Z,18.90
2022-08-07T01:20:59.257Z,18.90
2022-08-07T01:23:35.471Z,18.80
2022-08-07T01:26:12.055Z,18.80
2022-08-07T01:28:45.821Z,18.80
2022-08-07T01:31:17.755Z,18.70
2022-08-07T01:33:55.731Z,18.70
2022-08-07T01:36:33.869Z,18.70
2022-08-07T01:39:10.077Z,18.70
2022-08-07T01:41:55.103Z,18.70
2022-08-07T01:44:28.564Z,18.60
2022-08-07T01:46:57.444Z,18.60
2022-08-07T01:49:29.578Z,18.50
2022-08-07T01:52:05.009Z,18.50
2022-08-07T01:54:41.172Z,18.50
2022-08-07T01:57:24.326Z,18.50
2022-08-07T01:59:57.202Z,18.50
2022-08-07T02:03:11.608Z,18.50
2022-08-07T02:05:43.006Z,18.50
2022-08-07T02:08:16.159Z,18.50
2022-08-07T02:10:48.727Z,18.50
2022-08-07T02:13:56.591Z,18.50
2022-08-07T02:16:16.012Z,18.50
2022-08-07T02:18:47.315Z,18.50
2022-08-07T02:21:18.152Z,18.50
2022-08-07T02:23:49.305Z,18.50
2022-08-07T02:26:33.904Z,18.50
2022-08-07T02:29:04.311Z,18.40
2022-08-07T02:31:33.562Z,18.40
2022-08-07T02:34:11.175Z,18.40
2022-08-07T02:36:41.745Z,18.40
2022-08-07T02:39:16.652Z,18.40
2022-08-07T02:41:50.747Z,18.40
2022-08-07T02:44:27.576Z,18.40
2022-08-07T02:47:05.123Z,18.40
2022-08-07T02:49:57.907Z,18.30
2022-08-07T02:52:31.185Z,18.30
2022-08-07T02:55:28.060Z,18.30
2022-08-07T02:57:59.152Z,18.20
2022-08-07T03:00:30.542Z,18.30
2022-08-07T03:02:59.916Z,18.20
2022-08-07T03:05:37.199Z,18.20
2022-08-07T03:08:10.133Z,18.30
2022-08-07T03:10:40.963Z,18.30
2022-08-07T03:13:19.380Z,18.40
2022-08-07T03:15:56.697Z,18.30
2022-08-07T03:18:34.584Z,18.30
2022-08-07T03:21:08.565Z,18.20
2022-08-07T03:24:18.089Z,18.30
2022-08-07T03:26:32.541Z,18.30
2022-08-07T03:29:10.396Z,18.30
2022-08-07T03:31:42.333Z,18.20
2022-08-07T03:34:18.357Z,18.20
2022-08-07T03:36:52.875Z,18.20
2022-08-07T03:39:58.852Z,18.20
2022-08-07T03:42:13.354Z,18.20
2022-08-07T03:44:53.063Z,18.20
2022-08-07T03:47:22.994Z,18.20
2022-08-07T03:49:52.462Z,18.20
2022-08-07T03:52:26.781Z,18.20
2022-08-07T03:54:57.305Z,18.20
2022-08-07T03:58:35.389Z,18.10
2022-08-07T04:00:21.100Z,18.10
2022-08-07T04:02:58.066Z,18.20
2022-08-07T04:05:28.762Z,18.20
2022-08-07T04:08:12.588Z,18.20
2022-08-07T04:10:54.320Z,18.20
2022-08-07T04:14:11.009Z,18.20
2022-08-07T04:16:30.042Z,18.20
2022-08-07T04:19:03.873Z,18.30
2022-08-07T04:21:59.335Z,18.30
2022-08-07T04:24:34.125Z,18.40
2022-08-07T04:27:15.363Z,18.30
2022-08-07T04:30:02.098Z,18.40
2022-08-07T04:32:35.285Z,18.30
2022-08-07T04:35:05.383Z,18.40
2022-08-07T04:37:52.742Z,18.40
2022-08-07T04:40:30.195Z,18.30
2022-08-07T04:43:02.124Z,18.30
2022-08-07T04:45:58.138Z,18.30
2022-08-07T04:48:44.603Z,18.40
2022-08-07T04:51:27.028Z,18.40
2022-08-07T04:54:06.138Z,18.30
2022-08-07T04:58:07.514Z,18.40
2022-08-07T05:00:10.823Z,18.40
2022-08-07T05:02:31.145Z,18.40
2022-08-07T05:05:11.538Z,18.40
2022-08-07T05:08:02.322Z,18.30
2022-08-07T05:10:36.358Z,18.40
2022-08-07T05:14:54.447Z,18.40
2022-08-07T05:16:10.829Z,18.40
2022-08-07T05:18:47.370Z,18.40
2022-08-07T05:21:59.042Z,18.50
2022-08-07T05:24:13.314Z,18.50
2022-08-07T05:26:43.044Z,18.60
2022-08-07T05:29:18.241Z,18.60
2022-08-07T05:31:52.826Z,18.60
2022-08-07T05:34:26.335Z,18.70
2022-08-07T05:36:58.166Z,18.50
2022-08-07T05:40:13.568Z,18.60
2022-08-07T05:42:33.292Z,18.60
2022-08-07T05:45:14.179Z,18.60
2022-08-07T05:48:01.197Z,18.50
2022-08-07T05:50:32.297Z,18.60
2022-08-07T05:53:02.765Z,18.70
2022-08-07T05:56:03.466Z,18.80
2022-08-07T05:58:30.265Z,18.80
2022-08-07T06:01:10.364Z,18.80
2022-08-07T06:03:53.488Z,18.80
2022-08-07T06:06:29.968Z,18.80
2022-08-07T06:09:04.420Z,18.90
2022-08-07T06:11:34.557Z,18.90
2022-08-07T06:14:12.924Z,19.00
2022-08-07T06:16:50.207Z,19.10
2022-08-07T06:19:52.087Z,19.20
2022-08-07T06:22:22.816Z,19.30
2022-08-07T06:25:01.559Z,19.40
2022-08-07T06:27:59.700Z,19.40
2022-08-07T06:30:25.964Z,19.50
2022-08-07T06:33:05.477Z,19.60
2022-08-07T06:35:47.762Z,19.70
2022-08-07T06:38:32.534Z,19.80
2022-08-07T06:41:09.828Z,19.90
2022-08-07T06:43:46.224Z,20.00
2022-08-07T06:46:34.986Z,20.10
2022-08-07T06:49:04.398Z,20.20
2022-08-07T06:51:49.741Z,20.40
2022-08-07T06:55:33.101Z,20.50
2022-08-07T06:57:10.918Z,20.50
2022-08-07T07:00:11.858Z,20.60
2022-08-07T07:02:53.473Z,20.70
2022-08-07T07:06:03.652Z,20.60
2022-08-07T07:08:18.500Z,20.60
2022-08-07T07:10:56.390Z,20.60
2022-08-07T07:13:56.031Z,20.40
2022-08-07T07:16:27.221Z,20.40
2022-08-07T07:19:04.289Z,20.50
2022-08-07T07:22:05.152Z,20.60
2022-08-07T07:24:32.633Z,20.80
2022-08-07T07:27:04.664Z,20.90
2022-08-07T07:29:56.128Z,21.10
2022-08-07T07:32:27.126Z,21.30
2022-08-07T07:34:59.494Z,21.20
2022-08-07T07:37:49.793Z,21.40
2022-08-07T07:40:21.723Z,21.60
2022-08-07T07:42:56.579Z,21.70
2022-08-07T07:46:37.147Z,21.60
2022-08-07T07:48:35.345Z,21.40
2022-08-07T07:51:07.764Z,21.30
2022-08-07T07:53:52.035Z,21.20
2022-08-07T07:56:29.928Z,21.20
2022-08-07T07:59:01.422Z,21.30
2022-08-07T08:02:04.884Z,21.40
2022-08-07T08:04:25.407Z,21.60
2022-08-07T08:06:56.165Z,21.70
2022-08-07T08:09:29.140Z,22.00
2022-08-07T08:12:03.727Z,22.40
2022-08-07T08:14:36.576Z,22.70
2022-08-07T08:17:32.483Z,23.10
2022-08-07T08:20:18.750Z,23.10
2022-08-07T08:23:11.223Z,22.90
2022-08-07T08:26:03.314Z,22.90
2022-08-07T08:28:43.310Z,22.70
2022-08-07T08:31:22.924Z,22.30
2022-08-07T08:34:12.488Z,22.00
2022-08-07T08:36:57.999Z,21.90
2022-08-07T08:39:39.385Z,22.00
2022-08-07T08:42:26.510Z,22.20
2022-08-07T08:45:12.985Z,22.30
2022-08-07T08:47:54.897Z,22.40
2022-08-07T08:50:39.682Z,22.30
2022-08-07T08:53:19.864Z,22.30
2022-08-07T08:55:54.503Z,22.20
2022-08-07T08:58:36.283Z,22.20
2022-08-07T09:01:15.207Z,22.20
2022-08-07T09:03:57.211Z,22.20
2022-08-07T09:06:42.805Z,22.20
2022-08-07T09:09:36.557Z,22.20
2022-08-07T09:12:30.305Z,22.20
2022-08-07T09:16:24.319Z,22.00
2022-08-07T09:18:34.918Z,22.10
2022-08-07T09:21:57.691Z,22.30
2022-08-07T09:24:32.711Z,22.50
2022-08-07T09:27:13.506Z,22.70
2022-08-07T09:30:04.786Z,23.00
2022-08-07T09:32:58.353Z,23.20
2022-08-07T09:36:01.054Z,23.50
2022-08-07T09:38:55.696Z,23.70
2022-08-07T09:41:43.358Z,23.80
2022-08-07T09:47:37.352Z,24.00
2022-08-07T09:47:58.957Z,24.00
2022-08-07T09:50:37.608Z,24.20
2022-08-07T09:53:12.578Z,24.40
2022-08-07T09:56:04.512Z,24.50
2022-08-07T09:59:14.651Z,24.60
2022-08-07T10:01:59.690Z,24.90
2022-08-07T10:04:45.953Z,25.80
2022-08-07T10:07:39.927Z,26.60
2022-08-07T10:10:48.332Z,27.60
2022-08-07T10:14:00.572Z,28.50
2022-08-07T10:16:40.989Z,29.20
2022-08-07T10:19:42.237Z,29.60
2022-08-07T10:22:39.809Z,29.60
2022-08-07T10:25:22.821Z,29.70
2022-08-07T10:28:13.450Z,29.20
2022-08-07T10:30:57.337Z,29.30
2022-08-07T10:34:06.172Z,29.30
2022-08-07T10:36:56.039Z,29.20
2022-08-07T10:39:42.123Z,28.70
2022-08-07T10:42:36.380Z,28.40
2022-08-07T10:45:16.932Z,28.20
2022-08-07T10:48:03.310Z,28.30
2022-08-07T10:50:50.032Z,28.40
2022-08-07T10:53:27.643Z,28.50
2022-08-07T10:56:20.781Z,28.60
2022-08-07T10:59:08.349Z,28.40
2022-08-07T11:01:51.789Z,28.50
2022-08-07T11:04:57.681Z,28.50
2022-08-07T11:07:58.551Z,28.30
2022-08-07T11:10:31.513Z,28.20
2022-08-07T11:13:16.801Z,28.20
2022-08-07T11:16:07.285Z,28.00
2022-08-07T11:18:40.252Z,27.90
2022-08-07T11:21:17.281Z,27.60
2022-08-07T11:23:55.653Z,27.20
2022-08-07T11:26:32.907Z,27.00
2022-08-07T11:29:13.184Z,26.90
2022-08-07T11:32:06.244Z,27.00
2022-08-07T11:34:43.859Z,26.90
2022-08-07T11:37:25.373Z,26.70
2022-08-07T11:40:27.708Z,26.70
2022-08-07T11:43:04.443Z,26.50
2022-08-07T11:45:53.472Z,26.60
2022-08-07T11:49:51.599Z,26.60
2022-08-07T11:51:54.510Z,26.50
2022-08-07T11:54:55.623Z,26.30
2022-08-07T11:58:00.372Z,26.10
2022-08-07T12:00:32.580Z,26.10
2022-08-07T12:03:44.258Z,26.00
2022-08-07T12:06:39.070Z,25.90
2022-08-07T12:09:16.515Z,25.90
2022-08-07T12:12:10.744Z,25.90
2022-08-07T12:14:56.162Z,25.90
2022-08-07T12:17:39.881Z,25.90
2022-08-07T12:20:30.145Z,25.80
2022-08-07T12:23:37.094Z,25.70
2022-08-07T12:26:23.528Z,25.70
2022-08-07T12:29:07.253Z,25.60
2022-08-07T12:32:02.160Z,25.60
2022-08-07T12:34:34.337Z,25.50
2022-08-07T12:37:08.612Z,25.50
2022-08-07T12:39:51.224Z,25.50
2022-08-07T12:42:27.999Z,25.40
2022-08-07T12:45:05.925Z,25.40
2022-08-07T12:47:44.026Z,25.40
2022-08-07T12:50:33.835Z,25.60
2022-08-07T12:53:18.191Z,25.70
2022-08-07T12:56:03.027Z,25.80
2022-08-07T12:58:39.611Z,25.90
2022-08-07T13:01:21.515Z,26.20
2022-08-07T13:04:31.864Z,26.50
2022-08-07T13:08:14.210Z,27.00
2022-08-07T13:10:37.972Z,27.50
2022-08-07T13:13:47.849Z,27.90
2022-08-07T13:16:29.658Z,28.20
2022-08-07T13:19:11.356Z,28.50
2022-08-07T13:21:58.904Z,28.60
2022-08-07T13:24:52.285Z,28.50
2022-08-07T13:28:05.890Z,28.20
2022-08-07T13:30:19.021Z,28.20
2022-08-07T13:32:54.422Z,28.20
2022-08-07T13:36:00.584Z,28.20
2022-08-07T13:38:23.611Z,28.10
2022-08-07T13:41:06.054Z,28.20
2022-08-07T13:43:43.349Z,28.30
2022-08-07T13:46:28.800Z,28.50
2022-08-07T13:49:08.820Z,28.40
2022-08-07T13:52:22.505Z,28.30
2022-08-07T13:54:49.341Z,28.30
2022-08-07T13:57:24.212Z,28.30
2022-08-07T13:59:56.000Z,28.20
2022-08-07T14:02:29.663Z,28.30
2022-08-07T14:05:05.951Z,28.30
2022-08-07T14:07:59.349Z,28.40
2022-08-07T14:10:42.009Z,28.60
2022-08-07T14:13:16.995Z,28.80
2022-08-07T14:15:53.321Z,28.90
2022-08-07T14:18:33.200Z,28.90
2022-08-07T14:21:20.658Z,28.90
2022-08-07T14:23:59.005Z,28.70
2022-08-07T14:26:34.291Z,28.50
2022-08-07T14:32:02.440Z,28.40
2022-08-07T14:34:33.890Z,28.40
2022-08-07T14:37:16.672Z,28.50
2022-08-07T14:40:18.193Z,28.60
2022-08-07T14:43:00.648Z,28.70
2022-08-07T14:45:46.592Z,28.70
2022-08-07T14:48:21.520Z,28.50
2022-08-07T14:50:58.179Z,28.40
2022-08-07T14:54:08.849Z,28.20
2022-08-07T15:00:04.921Z,28.00
2022-08-07T15:02:31.631Z,28.00
2022-08-07T15:07:51.931Z,27.80
2022-08-07T15:10:26.068Z,27.70
2022-08-07T15:12:59.375Z,27.60
2022-08-07T15:15:38.453Z,27.20
2022-08-07T15:18:14.448Z,27.00
2022-08-07T15:21:04.005Z,26.70
2022-08-07T15:25:02.405Z,26.50
2022-08-07T15:26:39.477Z,26.30
2022-08-07T15:32:04.991Z,26.20
2022-08-07T15:34:50.798Z,26.10
2022-08-07T15:38:04.797Z,26.00
2022-08-07T15:40:38.201Z,25.90
2022-08-07T15:43:53.661Z,25.70
2022-08-07T15:46:31.742Z,25.70
2022-08-07T15:54:39.644Z,25.80
2022-08-07T15:57:40.100Z,25.70
2022-08-07T16:00:04.105Z,25.80
2022-08-07T16:02:41.010Z,25.80
2022-08-07T16:05:15.507Z,25.80
2022-08-07T16:08:30.536Z,25.70
2022-08-07T16:10:38.387Z,25.60
2022-08-07T16:13:57.630Z,25.60
2022-08-07T16:17:15.198Z,25.50
2022-08-07T16:20:05.561Z,25.30
2022-08-07T16:23:05.355Z,25.30
2022-08-07T16:25:52.622Z,25.20
2022-08-07T16:30:07.089Z,25.00
2022-08-07T16:31:51.148Z,24.90
2022-08-07T16:34:45.529Z,24.90
2022-08-07T16:38:04.827Z,24.90
2022-08-07T16:40:57.232Z,24.90
2022-08-07T16:44:06.218Z,24.80
2022-08-07T16:47:16.597Z,24.70
2022-08-07T16:50:35.371Z,24.70
2022-08-07T16:54:02.945Z,24.70
2022-08-07T16:56:37.255Z,24.60
2022-08-07T16:59:14.895Z,24.50
2022-08-07T17:02:00.504Z,24.40
2022-08-07T17:04:50.957Z,24.40
2022-08-07T17:07:55.289Z,24.30
2022-08-07T17:10:38.410Z,24.10
2022-08-07T17:14:17.784Z,24.10
2022-08-07T17:16:40.679Z,24.10
2022-08-07T17:20:01.019Z,24.00
2022-08-07T17:22:16.037Z,24.00
2022-08-07T17:24:56.566Z,23.90
2022-08-07T17:27:50.786Z,23.80
2022-08-07T17:30:26.606Z,23.60
2022-08-07T17:34:09.369Z,23.30
2022-08-07T17:36:00.655Z,23.00
2022-08-07T17:38:37.525Z,22.80
2022-08-07T17:42:03.551Z,22.50
2022-08-07T17:44:14.245Z,22.30
2022-08-07T17:46:55.287Z,22.10
2022-08-07T17:49:26.418Z,22.00
2022-08-07T17:52:12.686Z,21.80
2022-08-07T17:54:53.576Z,21.80
2022-08-07T17:57:56.206Z,21.60
2022-08-07T18:00:33.439Z,21.50
2022-08-07T18:03:18.168Z,21.50
2022-08-07T18:06:03.514Z,21.50
2022-08-07T18:09:01.307Z,21.40
2022-08-07T18:12:08.365Z,21.40
2022-08-07T18:14:29.214Z,21.40
2022-08-07T18:17:05.298Z,21.30
2022-08-07T18:21:10.004Z,21.30
2022-08-07T18:22:34.331Z,21.30
2022-08-07T18:25:18.805Z,21.30
2022-08-07T18:28:35.491Z,21.30
2022-08-07T18:31:09.811Z,21.20
2022-08-07T18:34:35.839Z,21.10
2022-08-07T18:37:09.235Z,21.00
2022-08-07T18:40:06.674Z,20.90
2022-08-07T18:42:45.911Z,20.90
2022-08-07T18:45:43.219Z,20.80
2022-08-07T18:50:05.908Z,20.70
2022-08-07T18:52:34.873Z,20.80
2022-08-07T18:54:30.967Z,20.80
2022-08-07T18:57:30.253Z,20.80
2022-08-07T19:00:33.177Z,20.80
2022-08-07T19:03:04.212Z,20.90
2022-08-07T19:06:02.350Z,20.80
2022-08-07T19:08:46.601Z,20.80
2022-08-07T19:11:35.831Z,20.80
2022-08-07T19:14:19.946Z,20.80
2022-08-07T19:17:04.912Z,20.80
2022-08-07T19:19:49.255Z,20.80
2022-08-07T19:22:30.939Z,20.70
2022-08-07T19:25:05.647Z,20.70
2022-08-07T19:30:53.558Z,20.70
2022-08-07T19:31:05.372Z,20.70
2022-08-07T19:33:34.795Z,20.60
2022-08-07T19:36:08.663Z,20.60
2022-08-07T19:38:52.937Z,20.60
2022-08-07T19:41:39.104Z,20.60
2022-08-07T19:44:21.607Z,20.60
2022-08-07T19:46:57.762Z,20.50
2022-08-07T19:49:56.358Z,20.50
2022-08-07T19:52:19.836Z,20.50
2022-08-07T19:54:56.784Z,20.50
2022-08-07T19:58:00.225Z,20.50
2022-08-07T20:00:28.991Z,20.50
2022-08-07T20:03:02.407Z,20.50
2022-08-07T20:05:59.866Z,20.60
2022-08-07T20:08:24.827Z,20.60
2022-08-07T20:10:56.333Z,20.60
2022-08-07T20:13:38.533Z,20.60
2022-08-07T20:16:15.898Z,20.60
2022-08-07T20:19:05.461Z,20.60
2022-08-07T20:21:41.732Z,20.60
2022-08-07T20:24:19.277Z,20.60
2022-08-07T20:26:52.351Z,20.50
2022-08-07T20:29:48.737Z,20.60
2022-08-07T20:32:25.217Z,20.60
2022-08-07T20:34:57.429Z,20.60
2022-08-07T20:37:34.165Z,20.60
2022-08-07T20:40:33.396Z,20.60
2022-08-07T20:42:57.994Z,20.60
2022-08-07T20:46:27.637Z,20.60
2022-08-07T20:48:28.899Z,20.60
2022-08-07T20:51:00.556Z,20.60
2022-08-07T20:54:04.700Z,20.60
2022-08-07T20:56:26.350Z,20.50
2022-08-07T20:58:58.562Z,20.40
2022-08-07T21:01:29.843Z,20.50
2022-08-07T21:04:22.691Z,20.50
2022-08-07T21:06:56.971Z,20.40
2022-08-07T21:09:51.532Z,20.40
2022-08-07T21:12:25.906Z,20.30
2022-08-07T21:15:00.968Z,20.30
2022-08-07T21:18:05.996Z,20.30
2022-08-07T21:20:26.564Z,20.30
2022-08-07T21:23:08.516Z,20.30
2022-08-07T21:26:03.224Z,20.30
2022-08-07T21:28:49.770Z,20.30
2022-08-07T21:31:31.242Z,20.30
2022-08-07T21:34:26.599Z,20.30
2022-08-07T21:37:04.990Z,20.20
2022-08-07T21:39:46.628Z,20.20
2022-08-07T21:42:42.857Z,20.20
2022-08-07T21:46:09.279Z,20.20
2022-08-07T21:48:27.607Z,20.10
2022-08-07T21:51:19.313Z,20.20
2022-08-07T21:53:56.283Z,20.10
2022-08-07T21:56:40.250Z,20.10
2022-08-07T21:59:30.992Z,20.10
2022-08-07T22:02:27.595Z,20.10
2022-08-07T22:05:01.465Z,20.10
2022-08-07T22:07:57.961Z,20.20
2022-08-07T22:10:33.726Z,20.20
2022-08-07T22:13:09.389Z,20.20
2022-08-07T22:16:42.597Z,20.30
2022-08-07T22:19:01.455Z,20.30
2022-08-07T22:22:02.055Z,20.20
2022-08-07T22:24:38.032Z,20.30
2022-08-07T22:27:16.005Z,20.20
2022-08-07T22:29:50.442Z,20.20
2022-08-07T22:32:25.559Z,20.20
2022-08-07T22:34:56.081Z,20.20
2022-08-07T22:38:01.993Z,20.20
2022-08-07T22:40:29.641Z,20.20
2022-08-07T22:43:04.463Z,20.20
2022-08-07T22:46:21.316Z,20.20
2022-08-07T22:49:01.295Z,20.30
2022-08-07T22:51:52.185Z,20.30
2022-08-07T22:54:37.987Z,20.30
2022-08-07T22:57:25.867Z,20.30
2022-08-07T22:59:59.927Z,20.20
2022-08-07T23:02:57.412Z,20.20
2022-08-07T23:06:09.606Z,20.20
2022-08-07T23:10:05.111Z,20.20
2022-08-07T23:12:03.211Z,20.20
2022-08-07T23:14:57.094Z,20.20
2022-08-07T23:17:41.547Z,20.20
2022-08-07T23:20:40.600Z,20.20
2022-08-07T23:24:04.342Z,20.20
2022-08-07T23:26:38.413Z,20.10
2022-08-07T23:29:43.832Z,20.10
2022-08-07T23:34:19.955Z,20.10
2022-08-07T23:35:23.876Z,20.10
2022-08-07T23:38:42.513Z,20.00
2022-08-07T23:41:33.249Z,20.10
2022-08-07T23:44:29.519Z,20.00
2022-08-07T23:47:16.203Z,20.00
2022-08-07T23:50:11.890Z,19.90
2022-08-07T23:53:05.338Z,19.90
2022-08-07T23:55:52.515Z,19.90
2022-08-07T23:58:27.209Z,19.80
